• Join FlightAware (Why Join?)
  • Login
  • US Flag 
07:17PM EDT


 

Airport Tracker/Info


-or-


 

Live Flight TrackerFlight Track Log ✈ VNR160 ✈ 26-Apr-2013 ✈ KJZI - KPDK

Flight Track Log - Related Links

Times and Time Zones

All times are in EDT time to prevent confusion due to time zone crossing. See the VNR160 flight status page for this flight to view local times or setup timezone preferences in your user account.

Time Position Orientation Groundspeed Altitude Reporting Facility
EDT Latitude Longitude Course Direction KTS MPH feet Rate Location/Type
11:31AM 32.7578 -80.0025 277° West 212 244 7,200  Level Jacksonville Center
11:32AM 32.7658 -80.0811 277° West 217 250 7,900 1,260 Climbing Jacksonville Center
11:33AM 32.7781 -80.1650 280° West 241 277 9,800 2,040 Climbing Jacksonville Center
11:34AM 32.7939 -80.2261 287° West 240 276 12,100 2,340 Climbing Jacksonville Center
11:35AM 32.8264 -80.2844 304° West 225 259 14,500 2,340 Climbing Jacksonville Center
11:36AM 32.8547 -80.3456 299° West 212 244 16,800 2,040 Climbing Jacksonville Center
11:37AM 32.8833 -80.4067 299° West 212 244 18,600 1,800 Climbing Jacksonville Center
11:38AM 32.9136 -80.4650 302° West 212 244 20,500 1,380 Climbing Jacksonville Center
11:39AM 32.9461 -80.5361 299° West 225 259 21,400 660 Climbing Jacksonville Center
11:40AM 32.9831 -80.6142 299° West 250 288 21,900 300 Climbing Jacksonville Center
11:41AM 33.0242 -80.6950 301° West 270 311 22,000  Climbing Jacksonville Center
11:42AM 33.0653 -80.7808 300° West 289 333 22,000  Level Jacksonville Center
11:43AM 33.1064 -80.8692 299° West 294 338 22,000  Level Jacksonville Center
11:44AM 33.1475 -80.9600 298° West 304 350 22,000  Level Jacksonville Center
11:45AM 33.1906 -81.0458 301° West 304 350 22,000  Level Jacksonville Center
11:46AM 33.2336 -81.1344 300° West 304 350 22,000  Level Jacksonville Center
11:47AM 33.2722 -81.2231 298° West 304 350 22,000  Level Jacksonville Center
11:48AM 33.3131 -81.3117 299° West 304 350 22,000  Level Jacksonville Center
11:49AM 33.3603 -81.4028 302° West 304 350 22,000  Level Jacksonville Center
11:50AM 33.4008 -81.4944 298° West 304 350 22,000  Level Jacksonville Center
11:51AM 33.4394 -81.5833 298° West 304 350 22,000  Level Jacksonville Center
11:54AM 33.5639 -81.8500 299° West 294 338 22,000  Level Atlanta Center
11:56AM 33.5939 -82.0189 282° West 289 333 22,000  Level Atlanta Center
11:57AM 33.5794 -82.1489 262° West 360 414 22,000  Level Atlanta Center
11:58AM 33.5642 -82.2514 260° West 336 387 22,000  Level Atlanta Center
11:59AM 33.5531 -82.3561 263° West 324 373 22,000  Level Atlanta Center
12:00PM 33.5461 -82.4486 265° West 315 362 22,000  Level Atlanta Center
12:01PM 33.5306 -82.5511 260° West 315 362 22,000  Level Atlanta Center
12:02PM 33.5192 -82.6533 262° West 310 357 22,000  Level Atlanta Center
12:03PM 33.5058 -82.7558 261° West 315 362 22,000 -960 Level Atlanta Center
12:04PM 33.4942 -82.8581 262° West 315 362 20,100 -2,100 Descending Atlanta Center
12:05PM 33.4786 -82.9603 260° West 315 362 17,800 -2,280 Descending Atlanta Center
12:06PM 33.4647 -83.0700 261° West 310 357 15,600 -2,160 Descending Atlanta Center
12:07PM 33.4508 -83.1625 260° West 305 351 13,500 -2,100 Descending Atlanta Center
12:08PM 33.4431 -83.2547 264° West 292 336 11,400 -1,800 Descending Atlanta Center
12:09PM 33.4269 -83.3444 258° West 287 330 10,000 -1,200 Descending Atlanta Center
12:10PM 33.4150 -83.4367 261° West 282 325 9,000 -1,020 Descending Atlanta Center
12:11PM 33.4008 -83.5286 260° West 282 325 8,000 -540 Descending Atlanta Center
12:12PM 33.3906 -83.6233 263° West 282 325 8,000 -60 Level Atlanta Center
12:13PM 33.4264 -83.6953 301° West 250 288 7,900 -600 Descending Atlanta Center
12:14PM 33.4869 -83.7450 326° Northwest 242 278 6,900 -960 Descending Atlanta Center
12:16PM 33.5816 -83.7908 337° Northwest  Level FlightAware Approximate
12:16PM 33.6019 -83.8467 337° Northwest 275 316 5,100  Level Atlanta Center
12:18PM 33.6530 -83.9311 351° North  Level Estimated
12:18PM 33.7167 -83.9667 351° North 233 268 3,300  Level Atlanta TRACON
12:19PM 33.7500 -84.0500 296° West 231 266 3,000 -180 Descending Atlanta TRACON
12:20PM 33.7833 -84.1167 301° West 227 261 3,000  Level Atlanta TRACON
12:21PM 33.8167 -84.1833 301° West 222 255 3,000 -180 Level Atlanta TRACON
12:22PM 33.8167 -84.2333 270° West 200 230 2,700 -540 Descending Atlanta TRACON
12:23PM 33.8333 -84.3000 287° West 167 192 2,000 -720 Descending Atlanta TRACON
12:25PM 33.8667 -84.3000 297° West  Level FlightAware Approximate
12:32PM 33.8756 -84.3020 297° West  Level Estimated
12:33PM 33.8756 -84.3020 297° West  Level Estimated